Celebrity Summit — 9HJC9 — position and weather

sailwx.info

Track history (hours):
 
Tides and Currents Weather Stations Pressure Air Temp Water Temp Dewpoint Dewpoint Depression Visibility Wind Speed Wind Dir Waves Ship Positions

Celebrity Summit

Last reported at 2017-Dec-11 15:51 UTC. Time now 2017-Dec-12 04:23 UTC.
Position N 18°20' W 064°57'.

Length 294 m; draft 8.3 m.

Type: Passenger vessel. MMSI: 249047000.

Date/timePositionNaut miles runAvg speedWind from/ knotsBaromVisibWave heightAir tempDewpointWater temp
2017-Dec-11 15:51N 18°20' W 064°57'4 4.1
2017-Dec-11 15:00N 18°18' W 064°54'412.0 080 / 141015.010.8 27.0 28.0
2017-Dec-11 14:42N 18°20' W 064°57'4 2.1
2017-Dec-11 13:00N 18°18' W 064°54'4 3.5 080 / 141015.010.8 27.0 28.0
2017-Dec-11 12:00N 18°20' W 064°57'0 0.2
2017-Dec-11 11:30N 18°20' W 064°57'2 4.6
2017-Dec-11 11:00N 18°18' W 064°59'3 6.7
2017-Dec-11 10:30N 18°15' W 064°58'5 9.9
2017-Dec-11 10:00N 18°13' W 064°53'5 9.9
2017-Dec-11 09:31N 18°12' W 064°48'510.4
2017-Dec-11 09:00N 18°10' W 064°43'4773.3
2017-Dec-11 09:00N 18°06' W 064°42'5 9.4 070 / 191014.010.8 26.0
2017-Dec-11 08:28N 18°08' W 064°37'3313.3
2017-Dec-11 06:00N 17°54' W 064°06'13 8.1 080 / 181014.0 5.4 27.027.027.0
2017-Dec-11 04:24N 17°55' W 063°53'511.7
2017-Dec-11 03:59N 17°53' W 063°48'611.7
2017-Dec-11 03:30N 17°51' W 063°43'713.7
2017-Dec-11 03:00N 17°48' W 063°36'2320.5 090 / 201015.010.8 25.0 28.0
2017-Dec-11 02:59N 17°50' W 063°36'611.8
2017-Dec-11 02:30N 17°48' W 063°31'611.8
2017-Dec-11 02:00N 17°46' W 063°25'611.4
2017-Dec-11 01:29N 17°44' W 063°19'611.6
2017-Dec-11 00:57N 17°41' W 063°13'511.1
2017-Dec-11 00:29N 17°38' W 063°09'817.0
2017-Dec-11 00:00N 17°30' W 063°06'3578.5 050 / 201014.010.8 27.0 28.0
2017-Dec-10 23:59N 17°33' W 063°06'611.5
2017-Dec-10 23:29N 17°28' W 063°03'611.4
2017-Dec-10 22:59N 17°24' W 062°59'1311.1
2017-Dec-10 21:48N 17°17' W 062°47'7 1.2
2017-Dec-10 16:00N 17°12' W 062°42'0 0.0 050 / 121016.0 27.0 28.0
2017-Dec-10 12:00N 17°12' W 062°42'1 0.8 050 / 121016.0 27.0 28.0
2017-Dec-10 10:27N 17°13' W 062°43'3 7.1
2017-Dec-10 09:59N 17°09' W 062°43'9 9.5
2017-Dec-10 09:00N 17°00' W 062°42'12 5.6 050 / 151014.0 27.0 28.0
2017-Dec-10 06:49N 16°48' W 062°40'5 7.3
2017-Dec-10 06:10N 16°45' W 062°36'636.3
2017-Dec-10 06:00N 16°42' W 062°30'539.7 080 / 221015.0 5.4 26.026.026.0
2017-Dec-10 05:53N 16°44' W 062°34'3 7.1
2017-Dec-10 05:30N 16°45' W 062°31'3 6.6
2017-Dec-10 05:01N 16°46' W 062°28'3 6.4
2017-Dec-10 04:31N 16°48' W 062°26'3 6.5
2017-Dec-10 04:01N 16°50' W 062°23'3 6.5
2017-Dec-10 03:30N 16°53' W 062°21'3 6.4
2017-Dec-10 03:00N 16°55' W 062°18'171056.4
2017-Dec-10 03:00N 16°54' W 062°36'2040.6 090 / 201015.010.8 26.0 28.0
2017-Dec-10 02:30N 16°57' W 062°16'3 6.6
2017-Dec-10 02:01N 16°59' W 062°13'3 6.4
2017-Dec-10 01:30N 17°02' W 062°11'3 6.3
2017-Dec-10 01:01N 17°04' W 062°09'3 5.9
2017-Dec-10 00:31N 17°06' W 062°07'2 5.0
2017-Dec-10 00:00N 17°08' W 062°05'5317.1
2017-Dec-10 00:00N 17°06' W 062°00'5 9.3 090 / 301015.010.8 27.0 28.0
2017-Dec-09 23:30N 17°09' W 062°03'3 5.6
2017-Dec-09 23:00N 17°10' W 062°00'3 5.5
2017-Dec-09 22:30N 17°09' W 061°57'3 6.1
2017-Dec-09 22:01N 17°09' W 061°54'3 6.2
2017-Dec-09 21:30N 17°07' W 061°51'0 0.8
2017-Dec-09 21:00N 17°07' W 061°51'0 0.0
2017-Dec-09 20:30N 17°07' W 061°51'0 0.0
2017-Dec-09 20:00N 17°07' W 061°51'0 0.0
2017-Dec-09 19:30N 17°07' W 061°51'0 0.0
2017-Dec-09 19:00N 17°07' W 061°51'0 0.0
2017-Dec-09 18:30N 17°07' W 061°51'0 0.0
2017-Dec-09 17:57N 17°07' W 061°51'0 0.0
2017-Dec-09 17:30N 17°07' W 061°51'0 0.0
2017-Dec-09 17:00N 17°07' W 061°51'0 0.0
2017-Dec-09 16:30N 17°07' W 061°51'0 0.0
2017-Dec-09 16:00N 17°07' W 061°51'0 0.0
2017-Dec-09 15:30N 17°07' W 061°51'0 0.0
2017-Dec-09 15:00N 17°07' W 061°51'3223.7
2017-Dec-09 15:00N 17°06' W 061°48'3 6.1 090 / 151015.010.8 27.0 28.0
2017-Dec-09 14:30N 17°07' W 061°51'0 0.0
2017-Dec-09 14:00N 17°07' W 061°51'0 0.0
2017-Dec-09 13:30N 17°07' W 061°51'0 0.0
2017-Dec-09 13:00N 17°07' W 061°51'0 0.0
2017-Dec-09 12:30N 17°07' W 061°51'0 0.0
2017-Dec-09 12:00N 17°07' W 061°51'3228.5
2017-Dec-09 12:00N 17°06' W 061°48'3 6.1 090 / 151015.010.8 27.0 28.0
2017-Dec-09 11:30N 17°07' W 061°51'1 2.4
2017-Dec-09 11:00N 17°08' W 061°52'4 8.7
2017-Dec-09 10:31N 17°09' W 061°56'510.9
2017-Dec-09 10:01N 17°04' W 061°58'612.0
2017-Dec-09 09:30N 16°58' W 061°59'612.7
2017-Dec-09 09:01N 16°51' W 061°58'5318.3
2017-Dec-09 09:00N 16°48' W 061°54'510.4 080 / 301015.010.8 27.0 28.0
2017-Dec-09 08:30N 16°45' W 061°58'713.3
2017-Dec-09 08:01N 16°38' W 061°58'612.8
2017-Dec-09 07:31N 16°32' W 061°57'612.8
2017-Dec-09 07:01N 16°25' W 061°57'713.1
2017-Dec-09 06:30N 16°19' W 061°57'713.1
2017-Dec-09 06:00N 16°12' W 061°56'2240.8
2017-Dec-09 06:00N 16°12' W 061°54'21 7.1 080 / 251015.0 5.4 27.027.027.0
2017-Dec-09 03:00N 15°54' W 061°42'6220.8 080 / 331015.0 5.4 27.0 26.0
2017-Dec-09 00:00N 14°54' W 061°24'2210.3 080 / 331015.0 5.4 27.0 28.0
2017-Dec-08 21:53N 14°36' W 061°11'512.1
2017-Dec-08 21:26N 14°36' W 061°05'817.0
2017-Dec-08 21:00N 14°30' W 061°00'0 0.0 080 / 181016.0 5.4 27.0 28.0
2017-Dec-08 14:00N 14°30' W 061°00'0 0.0 080 / 181016.0 5.4 27.0 28.0
2017-Dec-08 12:00N 14°30' W 061°00'8 6.4 080 / 181013.0 5.4 27.0 28.0
2017-Dec-08 10:41N 14°33' W 061°08'311.9
2017-Dec-08 10:25N 14°30' W 061°10'511.9
2017-Dec-08 10:00N 14°26' W 061°13'1514.9
2017-Dec-08 09:00N 14°12' W 061°18'3612.2 100 / 221013.0 5.4 27.0 28.0
2017-Dec-08 06:00N 13°36' W 061°24'7412.4 090 / 221013.0 5.4 27.027.027.0
2017-Dec-08 00:00N 12°24' W 061°42'24 4.0 090 / 191013.0 5.4 29.029.028.0
2017-Dec-07 18:00N 12°00' W 061°42'0 0.0 110 / 81012.0 5.4 29.029.028.0
2017-Dec-07 15:00N 12°00' W 061°42'0 0.0 090 / 201012.010.8 27.0 28.0
2017-Dec-07 12:00N 12°00' W 061°42'13 4.5 090 / 201012.010.8 27.0 28.0
2017-Dec-07 09:00N 12°12' W 061°48'40 6.7 090 / 201012.010.8 27.0 28.0
2017-Dec-07 03:00N 12°48' W 061°30'13 4.4 060 / 181014.0 5.4 27.0 27.0
2017-Dec-07 00:00N 12°54' W 061°18'13 4.4 240 / 181013.0 5.4 29.029.028.0
2017-Dec-06 21:00N 13°06' W 061°12'0 0.0 240 / 51013.0 5.4 29.029.028.0
2017-Dec-06 15:00N 13°06' W 061°12'0 0.0 090 / 131014.0 5.4 26.0 28.0
2017-Dec-06 12:00N 13°06' W 061°12'13 4.4 090 / 131014.0 5.4 26.0 28.0
2017-Dec-06 09:00N 13°00' W 061°00'18 5.8 090 / 141013.0 5.4 26.0 28.0
2017-Dec-06 06:00N 13°00' W 060°42'65 4.3 070 / 181014.0 5.4 27.027.027.0
2017-Dec-05 15:00N 13°06' W 059°36'0 0.0 080 / 101015.0 5.4 26.0 28.0
2017-Dec-05 09:00N 13°06' W 059°36'0 0.0 080 / 101013.0 5.4 26.0 28.0
2017-Dec-05 03:00N 13°06' W 059°36'0 0.0 100 / 91014.4 27.0
2017-Dec-05 00:00N 13°06' W 059°36'0 0.0 090 / 121014.0 5.4 27.0 28.0
2017-Dec-04 12:00N 13°06' W 059°36'21 7.1 090 / 151012.010.8 27.0 28.0
2017-Dec-04 09:00N 13°18' W 059°54'4615.4 090 / 191012.0 5.4 27.0 28.0
2017-Dec-04 06:00N 13°48' W 060°30'1719.9 100 / 141012.0 5.4 27.027.027.0
2017-Dec-04 05:07N 14°01' W 060°42'315.1
2017-Dec-04 04:54N 14°03' W 060°44'615.3
2017-Dec-04 04:30N 14°08' W 060°49'815.0
2017-Dec-04 04:00N 14°12' W 060°55'815.1
2017-Dec-04 03:30N 14°17' W 061°01'714.8
2017-Dec-04 03:00N 14°22' W 061°06'4281.0
2017-Dec-04 03:00N 14°18' W 061°06'1123.0 090 / 251013.0 5.4 28.0 28.0
2017-Dec-04 02:30N 14°28' W 061°12'714.9
2017-Dec-04 02:00N 14°33' W 061°18'815.3
2017-Dec-04 01:30N 14°38' W 061°24'1115.2
2017-Dec-04 00:48N 14°46' W 061°31'5 6.7
2017-Dec-04 00:00N 14°48' W 061°36'9616.0 090 / 251013.0 5.4 28.0 28.0
2017-Dec-03 18:00N 16°00' W 062°42'1023.0 090 / 81012.0 5.4 28.028.028.0
2017-Dec-03 17:33N 16°08' W 062°48'115.8
2017-Dec-03 17:30N 16°09' W 062°49'3112.2
2017-Dec-03 15:00N 16°30' W 063°12'5016.6 080 / 161015.010.8 28.0 28.0
2017-Dec-03 12:00N 17°06' W 063°48'5116.9 090 / 131013.010.8 28.0 28.0
2017-Dec-03 09:00N 17°48' W 064°18'2515.9 090 / 81012.010.8 28.0 28.0
2017-Dec-03 07:24N 18°01' W 064°41'615.6
2017-Dec-03 07:00N 18°04' W 064°47'815.6
2017-Dec-03 06:30N 18°07' W 064°54'611.5
2017-Dec-03 06:00N 18°06' W 065°00'746.9 050 / 151012.0 5.4 26.026.026.0
2017-Dec-03 05:51N 18°12' W 065°04'514.7
2017-Dec-03 05:30N 18°15' W 065°08'50 9.1
2017-Dec-03 00:00N 18°24' W 066°00'0 0.0 050 / 51013.0 5.4 27.027.027.0
2017-Dec-02 19:00N 18°24' W 066°00'0 0.0 090 / 51012.0 5.4 27.027.027.0
2017-Dec-02 12:00N 18°24' W 066°00'13 2.2 210 / 71015.0 5.4 26.0 28.0
2017-Dec-02 06:00N 18°36' W 065°54'23 7.6 060 / 51013.0 5.4 26.026.026.0
2017-Dec-02 03:00N 18°36' W 065°30'21 7.0 050 / 101013.7 26.0 24.0
2017-Dec-02 00:00N 18°24' W 065°12'2 3.9 100 / 71012.0 28.0
2017-Dec-01 23:31N 18°23' W 065°10'0 7.7
2017-Dec-01 23:30N 18°23' W 065°10'4 7.7
2017-Dec-01 22:59N 18°20' W 065°08'3 7.4
2017-Dec-01 22:30N 18°18' W 065°05'4 7.1
2017-Dec-01 22:00N 18°17' W 065°01'3 6.6
2017-Dec-01 21:30N 18°19' W 064°59'2 3.6
2017-Dec-01 21:00N 18°20' W 064°57'4213.9
2017-Dec-01 21:00N 18°18' W 064°54'4 6.8 100 / 71012.0 28.0
2017-Dec-01 20:29N 18°20' W 064°57'0 0.0
2017-Dec-01 19:59N 18°20' W 064°57'0 0.0
2017-Dec-01 19:29N 18°20' W 064°57'0 0.0
2017-Dec-01 18:59N 18°20' W 064°57'0 0.0
2017-Dec-01 18:29N 18°20' W 064°57'0 0.0
2017-Dec-01 17:59N 18°20' W 064°57'0 0.0
2017-Dec-01 17:23N 18°20' W 064°57'0 0.0
2017-Dec-01 16:56N 18°20' W 064°57'  
Track history (hours):
 
Tides and Currents Weather Stations Pressure Air Temp Water Temp Dewpoint Dewpoint Depression Visibility Wind Speed Wind Dir Waves Ship Positions

Celebrity Summit

Last reported at 2017-Dec-11 15:51 UTC. Time now 2017-Dec-12 04:23 UTC.
Position N 18°20' W 064°57'.

Length 294 m; draft 8.3 m.

Type: Passenger vessel. MMSI: 249047000.

Date/timePositionNaut miles runAvg speedWind from/ knotsBaromVisibWave heightAir tempDewpointWater temp
2017-Dec-11 15:51N 18°20' W 064°57'4 4.1
2017-Dec-11 15:00N 18°18' W 064°54'412.0 080 / 141015.010.8 27.0 28.0
2017-Dec-11 14:42N 18°20' W 064°57'4 2.1
2017-Dec-11 13:00N 18°18' W 064°54'4 3.5 080 / 141015.010.8 27.0 28.0
2017-Dec-11 12:00N 18°20' W 064°57'0 0.2
2017-Dec-11 11:30N 18°20' W 064°57'2 4.6
2017-Dec-11 11:00N 18°18' W 064°59'3 6.7
2017-Dec-11 10:30N 18°15' W 064°58'5 9.9
2017-Dec-11 10:00N 18°13' W 064°53'5 9.9
2017-Dec-11 09:31N 18°12' W 064°48'510.4
2017-Dec-11 09:00N 18°10' W 064°43'4773.3
2017-Dec-11 09:00N 18°06' W 064°42'5 9.4 070 / 191014.010.8 26.0
2017-Dec-11 08:28N 18°08' W 064°37'3313.3
2017-Dec-11 06:00N 17°54' W 064°06'13 8.1 080 / 181014.0 5.4 27.027.027.0
2017-Dec-11 04:24N 17°55' W 063°53'511.7
2017-Dec-11 03:59N 17°53' W 063°48'611.7
2017-Dec-11 03:30N 17°51' W 063°43'713.7
2017-Dec-11 03:00N 17°48' W 063°36'2320.5 090 / 201015.010.8 25.0 28.0
2017-Dec-11 02:59N 17°50' W 063°36'611.8
2017-Dec-11 02:30N 17°48' W 063°31'611.8
2017-Dec-11 02:00N 17°46' W 063°25'611.4
2017-Dec-11 01:29N 17°44' W 063°19'611.6
2017-Dec-11 00:57N 17°41' W 063°13'511.1
2017-Dec-11 00:29N 17°38' W 063°09'817.0
2017-Dec-11 00:00N 17°30' W 063°06'3578.5 050 / 201014.010.8 27.0 28.0
2017-Dec-10 23:59N 17°33' W 063°06'611.5
2017-Dec-10 23:29N 17°28' W 063°03'611.4
2017-Dec-10 22:59N 17°24' W 062°59'1311.1
2017-Dec-10 21:48N 17°17' W 062°47'7 1.2
2017-Dec-10 16:00N 17°12' W 062°42'0 0.0 050 / 121016.0 27.0 28.0
2017-Dec-10 12:00N 17°12' W 062°42'1 0.8 050 / 121016.0 27.0 28.0
2017-Dec-10 10:27N 17°13' W 062°43'3 7.1
2017-Dec-10 09:59N 17°09' W 062°43'9 9.5
2017-Dec-10 09:00N 17°00' W 062°42'12 5.6 050 / 151014.0 27.0 28.0
2017-Dec-10 06:49N 16°48' W 062°40'5 7.3
2017-Dec-10 06:10N 16°45' W 062°36'636.3
2017-Dec-10 06:00N 16°42' W 062°30'539.7 080 / 221015.0 5.4 26.026.026.0
2017-Dec-10 05:53N 16°44' W 062°34'3 7.1
2017-Dec-10 05:30N 16°45' W 062°31'3 6.6
2017-Dec-10 05:01N 16°46' W 062°28'3 6.4
2017-Dec-10 04:31N 16°48' W 062°26'3 6.5
2017-Dec-10 04:01N 16°50' W 062°23'3 6.5
2017-Dec-10 03:30N 16°53' W 062°21'3 6.4
2017-Dec-10 03:00N 16°55' W 062°18'171056.4
2017-Dec-10 03:00N 16°54' W 062°36'2040.6 090 / 201015.010.8 26.0 28.0
2017-Dec-10 02:30N 16°57' W 062°16'3 6.6
2017-Dec-10 02:01N 16°59' W 062°13'3 6.4
2017-Dec-10 01:30N 17°02' W 062°11'3 6.3
2017-Dec-10 01:01N 17°04' W 062°09'3 5.9
2017-Dec-10 00:31N 17°06' W 062°07'2 5.0
2017-Dec-10 00:00N 17°08' W 062°05'5317.1
2017-Dec-10 00:00N 17°06' W 062°00'5 9.3 090 / 301015.010.8 27.0 28.0
2017-Dec-09 23:30N 17°09' W 062°03'3 5.6
2017-Dec-09 23:00N 17°10' W 062°00'3 5.5
2017-Dec-09 22:30N 17°09' W 061°57'3 6.1
2017-Dec-09 22:01N 17°09' W 061°54'3 6.2
2017-Dec-09 21:30N 17°07' W 061°51'0 0.8
2017-Dec-09 21:00N 17°07' W 061°51'0 0.0
2017-Dec-09 20:30N 17°07' W 061°51'0 0.0
2017-Dec-09 20:00N 17°07' W 061°51'0 0.0
2017-Dec-09 19:30N 17°07' W 061°51'0 0.0
2017-Dec-09 19:00N 17°07' W 061°51'0 0.0
2017-Dec-09 18:30N 17°07' W 061°51'0 0.0
2017-Dec-09 17:57N 17°07' W 061°51'0 0.0
2017-Dec-09 17:30N 17°07' W 061°51'0 0.0
2017-Dec-09 17:00N 17°07' W 061°51'0 0.0
2017-Dec-09 16:30N 17°07' W 061°51'0 0.0
2017-Dec-09 16:00N 17°07' W 061°51'0 0.0
2017-Dec-09 15:30N 17°07' W 061°51'0 0.0
2017-Dec-09 15:00N 17°07' W 061°51'3223.7
2017-Dec-09 15:00N 17°06' W 061°48'3 6.1 090 / 151015.010.8 27.0 28.0
2017-Dec-09 14:30N 17°07' W 061°51'0 0.0
2017-Dec-09 14:00N 17°07' W 061°51'0 0.0
2017-Dec-09 13:30N 17°07' W 061°51'0 0.0
2017-Dec-09 13:00N 17°07' W 061°51'0 0.0
2017-Dec-09 12:30N 17°07' W 061°51'0 0.0
2017-Dec-09 12:00N 17°07' W 061°51'3228.5
2017-Dec-09 12:00N 17°06' W 061°48'3 6.1 090 / 151015.010.8 27.0 28.0
2017-Dec-09 11:30N 17°07' W 061°51'1 2.4
2017-Dec-09 11:00N 17°08' W 061°52'4 8.7
2017-Dec-09 10:31N 17°09' W 061°56'510.9
2017-Dec-09 10:01N 17°04' W 061°58'612.0
2017-Dec-09 09:30N 16°58' W 061°59'612.7
2017-Dec-09 09:01N 16°51' W 061°58'5318.3
2017-Dec-09 09:00N 16°48' W 061°54'510.4 080 / 301015.010.8 27.0 28.0
2017-Dec-09 08:30N 16°45' W 061°58'713.3
2017-Dec-09 08:01N 16°38' W 061°58'612.8
2017-Dec-09 07:31N 16°32' W 061°57'612.8
2017-Dec-09 07:01N 16°25' W 061°57'713.1
2017-Dec-09 06:30N 16°19' W 061°57'713.1
2017-Dec-09 06:00N 16°12' W 061°56'2240.8
2017-Dec-09 06:00N 16°12' W 061°54'21 7.1 080 / 251015.0 5.4 27.027.027.0
2017-Dec-09 03:00N 15°54' W 061°42'6220.8 080 / 331015.0 5.4 27.0 26.0
2017-Dec-09 00:00N 14°54' W 061°24'2210.3 080 / 331015.0 5.4 27.0 28.0
2017-Dec-08 21:53N 14°36' W 061°11'512.1
2017-Dec-08 21:26N 14°36' W 061°05'817.0
2017-Dec-08 21:00N 14°30' W 061°00'0 0.0 080 / 181016.0 5.4 27.0 28.0
2017-Dec-08 14:00N 14°30' W 061°00'0 0.0 080 / 181016.0 5.4 27.0 28.0
2017-Dec-08 12:00N 14°30' W 061°00'8 6.4 080 / 181013.0 5.4 27.0 28.0
2017-Dec-08 10:41N 14°33' W 061°08'311.9
2017-Dec-08 10:25N 14°30' W 061°10'511.9
2017-Dec-08 10:00N 14°26' W 061°13'1514.9
2017-Dec-08 09:00N 14°12' W 061°18'3612.2 100 / 221013.0 5.4 27.0 28.0
2017-Dec-08 06:00N 13°36' W 061°24'7412.4 090 / 221013.0 5.4 27.027.027.0
2017-Dec-08 00:00N 12°24' W 061°42'24 4.0 090 / 191013.0 5.4 29.029.028.0
2017-Dec-07 18:00N 12°00' W 061°42'0 0.0 110 / 81012.0 5.4 29.029.028.0
2017-Dec-07 15:00N 12°00' W 061°42'0 0.0 090 / 201012.010.8 27.0 28.0
2017-Dec-07 12:00N 12°00' W 061°42'13 4.5 090 / 201012.010.8 27.0 28.0
2017-Dec-07 09:00N 12°12' W 061°48'40 6.7 090 / 201012.010.8 27.0 28.0
2017-Dec-07 03:00N 12°48' W 061°30'13 4.4 060 / 181014.0 5.4 27.0 27.0
2017-Dec-07 00:00N 12°54' W 061°18'13 4.4 240 / 181013.0 5.4 29.029.028.0
2017-Dec-06 21:00N 13°06' W 061°12'0 0.0 240 / 51013.0 5.4 29.029.028.0
2017-Dec-06 15:00N 13°06' W 061°12'0 0.0 090 / 131014.0 5.4 26.0 28.0
2017-Dec-06 12:00N 13°06' W 061°12'13 4.4 090 / 131014.0 5.4 26.0 28.0
2017-Dec-06 09:00N 13°00' W 061°00'18 5.8 090 / 141013.0 5.4 26.0 28.0
2017-Dec-06 06:00N 13°00' W 060°42'65 4.3 070 / 181014.0 5.4 27.027.027.0
2017-Dec-05 15:00N 13°06' W 059°36'0 0.0 080 / 101015.0 5.4 26.0 28.0
2017-Dec-05 09:00N 13°06' W 059°36'0 0.0 080 / 101013.0 5.4 26.0 28.0
2017-Dec-05 03:00N 13°06' W 059°36'0 0.0 100 / 91014.4 27.0
2017-Dec-05 00:00N 13°06' W 059°36'0 0.0 090 / 121014.0 5.4 27.0 28.0
2017-Dec-04 12:00N 13°06' W 059°36'21 7.1 090 / 151012.010.8 27.0 28.0
2017-Dec-04 09:00N 13°18' W 059°54'4615.4 090 / 191012.0 5.4 27.0 28.0
2017-Dec-04 06:00N 13°48' W 060°30'1719.9 100 / 141012.0 5.4 27.027.027.0
2017-Dec-04 05:07N 14°01' W 060°42'315.1
2017-Dec-04 04:54N 14°03' W 060°44'615.3
2017-Dec-04 04:30N 14°08' W 060°49'815.0
2017-Dec-04 04:00N 14°12' W 060°55'815.1
2017-Dec-04 03:30N 14°17' W 061°01'714.8
2017-Dec-04 03:00N 14°22' W 061°06'4281.0
2017-Dec-04 03:00N 14°18' W 061°06'1123.0 090 / 251013.0 5.4 28.0 28.0
2017-Dec-04 02:30N 14°28' W 061°12'714.9
2017-Dec-04 02:00N 14°33' W 061°18'815.3
2017-Dec-04 01:30N 14°38' W 061°24'1115.2
2017-Dec-04 00:48N 14°46' W 061°31'5 6.7
2017-Dec-04 00:00N 14°48' W 061°36'9616.0 090 / 251013.0 5.4 28.0 28.0
2017-Dec-03 18:00N 16°00' W 062°42'1023.0 090 / 81012.0 5.4 28.028.028.0
2017-Dec-03 17:33N 16°08' W 062°48'115.8
2017-Dec-03 17:30N 16°09' W 062°49'3112.2
2017-Dec-03 15:00N 16°30' W 063°12'5016.6 080 / 161015.010.8 28.0 28.0
2017-Dec-03 12:00N 17°06' W 063°48'5116.9 090 / 131013.010.8 28.0 28.0
2017-Dec-03 09:00N 17°48' W 064°18'2515.9 090 / 81012.010.8 28.0 28.0
2017-Dec-03 07:24N 18°01' W 064°41'615.6
2017-Dec-03 07:00N 18°04' W 064°47'815.6
2017-Dec-03 06:30N 18°07' W 064°54'611.5
2017-Dec-03 06:00N 18°06' W 065°00'746.9 050 / 151012.0 5.4 26.026.026.0
2017-Dec-03 05:51N 18°12' W 065°04'514.7
2017-Dec-03 05:30N 18°15' W 065°08'50 9.1
2017-Dec-03 00:00N 18°24' W 066°00'0 0.0 050 / 51013.0 5.4 27.027.027.0
2017-Dec-02 19:00N 18°24' W 066°00'0 0.0 090 / 51012.0 5.4 27.027.027.0
2017-Dec-02 12:00N 18°24' W 066°00'13 2.2 210 / 71015.0 5.4 26.0 28.0
2017-Dec-02 06:00N 18°36' W 065°54'23 7.6 060 / 51013.0 5.4 26.026.026.0
2017-Dec-02 03:00N 18°36' W 065°30'21 7.0 050 / 101013.7 26.0 24.0
2017-Dec-02 00:00N 18°24' W 065°12'2 3.9 100 / 71012.0 28.0
2017-Dec-01 23:31N 18°23' W 065°10'0 7.7
2017-Dec-01 23:30N 18°23' W 065°10'4 7.7
2017-Dec-01 22:59N 18°20' W 065°08'3 7.4
2017-Dec-01 22:30N 18°18' W 065°05'4 7.1
2017-Dec-01 22:00N 18°17' W 065°01'3 6.6
2017-Dec-01 21:30N 18°19' W 064°59'2 3.6
2017-Dec-01 21:00N 18°20' W 064°57'4213.9
2017-Dec-01 21:00N 18°18' W 064°54'4 6.8 100 / 71012.0 28.0
2017-Dec-01 20:29N 18°20' W 064°57'0 0.0
2017-Dec-01 19:59N 18°20' W 064°57'0 0.0
2017-Dec-01 19:29N 18°20' W 064°57'0 0.0
2017-Dec-01 18:59N 18°20' W 064°57'0 0.0
2017-Dec-01 18:29N 18°20' W 064°57'0 0.0
2017-Dec-01 17:59N 18°20' W 064°57'0 0.0
2017-Dec-01 17:23N 18°20' W 064°57'0 0.0
2017-Dec-01 16:56N 18°20' W 064°57'  

Dump ship's entire track history